sensor_id;sensor_type;location;lat;lon;timestamp;P1;durP1;ratioP1;P2;durP2;ratioP2
37407;SDS011;24866;50.248;8.252;2023-09-30T00:01:44;13.30;;;7.20;;
37407;SDS011;24866;50.248;8.252;2023-09-30T00:04:16;15.65;;;7.00;;
37407;SDS011;24866;50.248;8.252;2023-09-30T00:06:46;15.88;;;8.10;;
37407;SDS011;24866;50.248;8.252;2023-09-30T00:09:15;21.45;;;8.13;;
37407;SDS011;24866;50.248;8.252;2023-09-30T00:11:45;16.52;;;7.88;;
37407;SDS011;24866;50.248;8.252;2023-09-30T00:14:15;18.13;;;8.70;;
37407;SDS011;24866;50.248;8.252;2023-09-30T00:16:46;22.02;;;10.40;;
37407;SDS011;24866;50.248;8.252;2023-09-30T00:19:17;19.52;;;8.95;;
37407;SDS011;24866;50.248;8.252;2023-09-30T00:21:47;13.80;;;7.75;;
37407;SDS011;24866;50.248;8.252;2023-09-30T00:24:17;19.42;;;8.10;;
37407;SDS011;24866;50.248;8.252;2023-09-30T00:26:47;19.17;;;8.25;;
37407;SDS011;24866;50.248;8.252;2023-09-30T00:29:18;19.25;;;8.18;;
37407;SDS011;24866;50.248;8.252;2023-09-30T00:31:48;19.27;;;8.57;;
37407;SDS011;24866;50.248;8.252;2023-09-30T00:34:19;19.23;;;8.35;;
37407;SDS011;24866;50.248;8.252;2023-09-30T00:36:49;14.63;;;7.20;;
37407;SDS011;24866;50.248;8.252;2023-09-30T00:39:19;14.32;;;6.47;;
37407;SDS011;24866;50.248;8.252;2023-09-30T00:41:50;14.77;;;6.80;;
37407;SDS011;24866;50.248;8.252;2023-09-30T00:44:20;18.38;;;7.57;;
37407;SDS011;24866;50.248;8.252;2023-09-30T00:46:50;19.48;;;6.53;;
37407;SDS011;24866;50.248;8.252;2023-09-30T00:49:22;13.43;;;6.82;;
37407;SDS011;24866;50.248;8.252;2023-09-30T00:51:54;17.58;;;6.75;;
37407;SDS011;24866;50.248;8.252;2023-09-30T00:54:24;12.88;;;6.70;;
37407;SDS011;24866;50.248;8.252;2023-09-30T00:56:55;18.27;;;6.95;;
37407;SDS011;24866;50.248;8.252;2023-09-30T00:59:28;14.07;;;5.70;;
37407;SDS011;24866;50.248;8.252;2023-09-30T01:02:00;13.80;;;5.72;;
37407;SDS011;24866;50.248;8.252;2023-09-30T01:04:35;17.23;;;6.38;;
37407;SDS011;24866;50.248;8.252;2023-09-30T01:07:05;14.30;;;5.67;;
37407;SDS011;24866;50.248;8.252;2023-09-30T01:09:35;15.88;;;6.10;;
37407;SDS011;24866;50.248;8.252;2023-09-30T01:12:05;18.10;;;7.55;;
37407;SDS011;24866;50.248;8.252;2023-09-30T01:14:36;16.90;;;6.60;;
37407;SDS011;24866;50.248;8.252;2023-09-30T01:17:06;17.52;;;6.53;;
37407;SDS011;24866;50.248;8.252;2023-09-30T01:19:39;15.13;;;6.25;;
37407;SDS011;24866;50.248;8.252;2023-09-30T01:22:12;11.80;;;5.95;;
37407;SDS011;24866;50.248;8.252;2023-09-30T01:24:42;12.50;;;6.32;;
37407;SDS011;24866;50.248;8.252;2023-09-30T01:27:12;16.98;;;6.82;;
37407;SDS011;24866;50.248;8.252;2023-09-30T01:29:44;18.65;;;7.57;;
37407;SDS011;24866;50.248;8.252;2023-09-30T01:32:15;19.77;;;7.03;;
37407;SDS011;24866;50.248;8.252;2023-09-30T01:34:45;19.95;;;6.25;;
37407;SDS011;24866;50.248;8.252;2023-09-30T01:37:16;19.55;;;7.43;;
37407;SDS011;24866;50.248;8.252;2023-09-30T01:39:46;14.40;;;5.82;;
37407;SDS011;24866;50.248;8.252;2023-09-30T01:42:20;15.20;;;7.57;;
37407;SDS011;24866;50.248;8.252;2023-09-30T01:44:50;16.90;;;7.10;;
37407;SDS011;24866;50.248;8.252;2023-09-30T01:47:20;15.10;;;6.40;;
37407;SDS011;24866;50.248;8.252;2023-09-30T01:49:50;15.50;;;6.47;;
37407;SDS011;24866;50.248;8.252;2023-09-30T01:52:21;17.90;;;6.55;;
37407;SDS011;24866;50.248;8.252;2023-09-30T01:54:51;16.58;;;5.97;;
37407;SDS011;24866;50.248;8.252;2023-09-30T01:57:22;14.95;;;6.55;;
37407;SDS011;24866;50.248;8.252;2023-09-30T01:59:51;14.23;;;6.72;;
37407;SDS011;24866;50.248;8.252;2023-09-30T02:02:22;15.43;;;6.32;;
37407;SDS011;24866;50.248;8.252;2023-09-30T02:04:51;11.65;;;5.95;;
37407;SDS011;24866;50.248;8.252;2023-09-30T02:07:23;15.98;;;5.93;;
37407;SDS011;24866;50.248;8.252;2023-09-30T02:09:53;15.10;;;6.65;;
37407;SDS011;24866;50.248;8.252;2023-09-30T02:12:23;13.40;;;6.22;;
37407;SDS011;24866;50.248;8.252;2023-09-30T02:14:53;10.50;;;5.38;;
37407;SDS011;24866;50.248;8.252;2023-09-30T02:17:23;14.98;;;5.88;;
37407;SDS011;24866;50.248;8.252;2023-09-30T02:19:53;17.10;;;6.43;;
37407;SDS011;24866;50.248;8.252;2023-09-30T02:22:24;13.00;;;6.03;;
37407;SDS011;24866;50.248;8.252;2023-09-30T02:24:56;13.77;;;6.07;;
37407;SDS011;24866;50.248;8.252;2023-09-30T02:27:26;19.98;;;7.15;;
37407;SDS011;24866;50.248;8.252;2023-09-30T02:29:56;16.15;;;6.53;;
37407;SDS011;24866;50.248;8.252;2023-09-30T02:32:26;14.40;;;5.75;;
37407;SDS011;24866;50.248;8.252;2023-09-30T02:34:56;13.27;;;5.95;;
37407;SDS011;24866;50.248;8.252;2023-09-30T02:37:27;18.00;;;8.18;;
37407;SDS011;24866;50.248;8.252;2023-09-30T02:39:57;16.80;;;6.45;;
37407;SDS011;24866;50.248;8.252;2023-09-30T02:42:27;19.17;;;7.68;;
37407;SDS011;24866;50.248;8.252;2023-09-30T02:44:59;18.17;;;6.95;;
37407;SDS011;24866;50.248;8.252;2023-09-30T02:47:29;22.17;;;8.43;;
37407;SDS011;24866;50.248;8.252;2023-09-30T02:49:59;19.45;;;8.63;;
37407;SDS011;24866;50.248;8.252;2023-09-30T02:52:30;16.42;;;7.35;;
37407;SDS011;24866;50.248;8.252;2023-09-30T02:55:00;19.45;;;6.55;;
37407;SDS011;24866;50.248;8.252;2023-09-30T02:57:30;18.42;;;6.65;;
37407;SDS011;24866;50.248;8.252;2023-09-30T03:00:00;18.48;;;6.93;;
37407;SDS011;24866;50.248;8.252;2023-09-30T03:02:40;14.88;;;6.78;;
37407;SDS011;24866;50.248;8.252;2023-09-30T03:05:09;15.50;;;6.68;;
37407;SDS011;24866;50.248;8.252;2023-09-30T03:07:41;17.52;;;6.35;;
37407;SDS011;24866;50.248;8.252;2023-09-30T03:10:11;15.57;;;5.50;;
37407;SDS011;24866;50.248;8.252;2023-09-30T03:12:48;12.32;;;6.07;;
37407;SDS011;24866;50.248;8.252;2023-09-30T03:15:18;13.27;;;5.68;;
37407;SDS011;24866;50.248;8.252;2023-09-30T03:17:48;13.07;;;5.55;;
37407;SDS011;24866;50.248;8.252;2023-09-30T03:20:18;12.73;;;5.00;;
37407;SDS011;24866;50.248;8.252;2023-09-30T03:22:50;14.23;;;5.53;;
37407;SDS011;24866;50.248;8.252;2023-09-30T03:25:20;18.55;;;6.68;;
37407;SDS011;24866;50.248;8.252;2023-09-30T03:27:50;15.43;;;6.93;;
37407;SDS011;24866;50.248;8.252;2023-09-30T03:30:20;15.20;;;6.47;;
37407;SDS011;24866;50.248;8.252;2023-09-30T03:32:50;15.27;;;6.63;;
37407;SDS011;24866;50.248;8.252;2023-09-30T03:35:19;20.90;;;7.35;;
37407;SDS011;24866;50.248;8.252;2023-09-30T03:37:51;18.85;;;7.13;;
37407;SDS011;24866;50.248;8.252;2023-09-30T03:40:20;11.07;;;5.00;;
37407;SDS011;24866;50.248;8.252;2023-09-30T03:43:01;14.20;;;6.28;;
37407;SDS011;24866;50.248;8.252;2023-09-30T03:45:31;13.85;;;6.07;;
37407;SDS011;24866;50.248;8.252;2023-09-30T03:48:01;12.38;;;6.22;;
37407;SDS011;24866;50.248;8.252;2023-09-30T03:50:31;18.27;;;6.22;;
37407;SDS011;24866;50.248;8.252;2023-09-30T03:53:03;12.55;;;6.38;;
37407;SDS011;24866;50.248;8.252;2023-09-30T03:55:35;14.75;;;7.13;;
37407;SDS011;24866;50.248;8.252;2023-09-30T03:58:06;15.00;;;6.88;;
37407;SDS011;24866;50.248;8.252;2023-09-30T04:00:36;16.38;;;7.25;;
37407;SDS011;24866;50.248;8.252;2023-09-30T04:03:05;18.02;;;7.65;;
37407;SDS011;24866;50.248;8.252;2023-09-30T04:05:35;17.80;;;7.90;;
37407;SDS011;24866;50.248;8.252;2023-09-30T04:08:06;18.70;;;7.53;;
37407;SDS011;24866;50.248;8.252;2023-09-30T04:10:36;13.43;;;7.78;;
37407;SDS011;24866;50.248;8.252;2023-09-30T04:13:06;16.15;;;8.20;;
37407;SDS011;24866;50.248;8.252;2023-09-30T04:15:36;22.48;;;8.93;;
37407;SDS011;24866;50.248;8.252;2023-09-30T04:18:07;19.02;;;8.70;;
37407;SDS011;24866;50.248;8.252;2023-09-30T04:20:40;18.65;;;8.88;;
37407;SDS011;24866;50.248;8.252;2023-09-30T04:23:11;16.88;;;7.30;;
37407;SDS011;24866;50.248;8.252;2023-09-30T04:25:41;15.73;;;8.10;;
37407;SDS011;24866;50.248;8.252;2023-09-30T04:28:12;18.10;;;8.50;;
37407;SDS011;24866;50.248;8.252;2023-09-30T04:30:43;17.20;;;7.95;;
37407;SDS011;24866;50.248;8.252;2023-09-30T04:33:14;19.42;;;8.52;;
37407;SDS011;24866;50.248;8.252;2023-09-30T04:35:45;20.27;;;8.95;;
37407;SDS011;24866;50.248;8.252;2023-09-30T04:38:16;16.92;;;8.75;;
37407;SDS011;24866;50.248;8.252;2023-09-30T04:40:46;16.58;;;8.27;;
37407;SDS011;24866;50.248;8.252;2023-09-30T04:45:49;13.52;;;5.75;;
37407;SDS011;24866;50.248;8.252;2023-09-30T04:48:22;12.43;;;6.82;;
37407;SDS011;24866;50.248;8.252;2023-09-30T04:50:52;10.75;;;6.13;;
37407;SDS011;24866;50.248;8.252;2023-09-30T04:53:24;14.40;;;6.43;;
37407;SDS011;24866;50.248;8.252;2023-09-30T04:55:54;12.80;;;6.55;;
37407;SDS011;24866;50.248;8.252;2023-09-30T04:58:24;12.93;;;5.63;;
37407;SDS011;24866;50.248;8.252;2023-09-30T05:00:54;14.68;;;6.40;;
37407;SDS011;24866;50.248;8.252;2023-09-30T05:03:24;12.77;;;6.00;;
37407;SDS011;24866;50.248;8.252;2023-09-30T05:05:54;10.57;;;5.63;;
37407;SDS011;24866;50.248;8.252;2023-09-30T05:08:26;11.05;;;6.00;;
37407;SDS011;24866;50.248;8.252;2023-09-30T05:10:56;8.05;;;4.78;;
37407;SDS011;24866;50.248;8.252;2023-09-30T05:13:26;10.85;;;5.28;;
37407;SDS011;24866;50.248;8.252;2023-09-30T05:15:56;11.57;;;5.05;;
37407;SDS011;24866;50.248;8.252;2023-09-30T05:18:27;11.32;;;5.15;;
37407;SDS011;24866;50.248;8.252;2023-09-30T05:20:57;11.52;;;5.72;;
37407;SDS011;24866;50.248;8.252;2023-09-30T05:23:28;13.60;;;7.47;;
37407;SDS011;24866;50.248;8.252;2023-09-30T05:25:58;12.10;;;6.65;;
37407;SDS011;24866;50.248;8.252;2023-09-30T05:28:28;17.25;;;7.03;;
37407;SDS011;24866;50.248;8.252;2023-09-30T05:30:59;14.25;;;6.75;;
37407;SDS011;24866;50.248;8.252;2023-09-30T05:33:29;14.90;;;6.22;;
37407;SDS011;24866;50.248;8.252;2023-09-30T05:35:59;17.63;;;6.20;;
37407;SDS011;24866;50.248;8.252;2023-09-30T05:38:32;12.57;;;6.28;;
37407;SDS011;24866;50.248;8.252;2023-09-30T05:41:02;11.65;;;6.90;;
37407;SDS011;24866;50.248;8.252;2023-09-30T05:43:32;11.75;;;6.75;;
37407;SDS011;24866;50.248;8.252;2023-09-30T05:46:01;17.95;;;6.20;;
37407;SDS011;24866;50.248;8.252;2023-09-30T05:48:32;14.25;;;7.22;;
37407;SDS011;24866;50.248;8.252;2023-09-30T05:51:02;13.00;;;6.90;;
37407;SDS011;24866;50.248;8.252;2023-09-30T05:53:33;10.50;;;5.93;;
37407;SDS011;24866;50.248;8.252;2023-09-30T05:56:04;11.73;;;6.57;;
37407;SDS011;24866;50.248;8.252;2023-09-30T05:58:34;12.40;;;6.15;;
37407;SDS011;24866;50.248;8.252;2023-09-30T06:01:07;11.10;;;7.13;;
37407;SDS011;24866;50.248;8.252;2023-09-30T06:03:38;10.75;;;5.95;;
37407;SDS011;24866;50.248;8.252;2023-09-30T06:06:11;12.85;;;7.25;;
37407;SDS011;24866;50.248;8.252;2023-09-30T06:08:45;15.55;;;8.10;;
37407;SDS011;24866;50.248;8.252;2023-09-30T06:11:17;12.02;;;7.85;;
37407;SDS011;24866;50.248;8.252;2023-09-30T06:13:52;19.20;;;8.98;;
37407;SDS011;24866;50.248;8.252;2023-09-30T06:16:22;15.23;;;8.60;;
37407;SDS011;24866;50.248;8.252;2023-09-30T06:18:54;18.23;;;9.00;;
37407;SDS011;24866;50.248;8.252;2023-09-30T06:21:24;16.73;;;9.57;;
37407;SDS011;24866;50.248;8.252;2023-09-30T06:26:28;10.95;;;6.50;;
37407;SDS011;24866;50.248;8.252;2023-09-30T06:28:58;14.95;;;7.63;;
37407;SDS011;24866;50.248;8.252;2023-09-30T06:31:28;11.73;;;7.68;;
37407;SDS011;24866;50.248;8.252;2023-09-30T06:33:58;12.70;;;6.68;;
37407;SDS011;24866;50.248;8.252;2023-09-30T06:36:28;14.55;;;8.13;;
37407;SDS011;24866;50.248;8.252;2023-09-30T06:38:59;11.98;;;8.00;;
37407;SDS011;24866;50.248;8.252;2023-09-30T06:41:33;14.07;;;7.68;;
37407;SDS011;24866;50.248;8.252;2023-09-30T06:44:03;15.65;;;8.55;;
37407;SDS011;24866;50.248;8.252;2023-09-30T06:46:33;16.27;;;9.60;;
37407;SDS011;24866;50.248;8.252;2023-09-30T06:49:03;16.73;;;9.25;;
37407;SDS011;24866;50.248;8.252;2023-09-30T06:51:33;17.48;;;9.70;;
37407;SDS011;24866;50.248;8.252;2023-09-30T06:54:05;18.08;;;9.75;;
37407;SDS011;24866;50.248;8.252;2023-09-30T06:56:36;19.65;;;11.73;;
37407;SDS011;24866;50.248;8.252;2023-09-30T06:59:05;27.17;;;15.98;;
37407;SDS011;24866;50.248;8.252;2023-09-30T07:01:35;28.17;;;14.73;;
37407;SDS011;24866;50.248;8.252;2023-09-30T07:04:05;26.27;;;15.20;;
37407;SDS011;24866;50.248;8.252;2023-09-30T07:06:35;25.33;;;14.85;;
37407;SDS011;24866;50.248;8.252;2023-09-30T07:09:06;28.02;;;15.55;;
37407;SDS011;24866;50.248;8.252;2023-09-30T07:11:37;32.92;;;17.00;;
37407;SDS011;24866;50.248;8.252;2023-09-30T07:14:07;26.25;;;13.80;;
37407;SDS011;24866;50.248;8.252;2023-09-30T07:16:37;24.40;;;15.02;;
37407;SDS011;24866;50.248;8.252;2023-09-30T07:19:08;31.85;;;18.08;;
37407;SDS011;24866;50.248;8.252;2023-09-30T07:21:38;30.92;;;18.38;;
37407;SDS011;24866;50.248;8.252;2023-09-30T07:24:09;30.48;;;18.52;;
37407;SDS011;24866;50.248;8.252;2023-09-30T07:26:39;33.20;;;19.25;;
37407;SDS011;24866;50.248;8.252;2023-09-30T07:29:08;30.38;;;17.35;;
37407;SDS011;24866;50.248;8.252;2023-09-30T07:31:38;36.35;;;18.90;;
37407;SDS011;24866;50.248;8.252;2023-09-30T07:34:08;32.60;;;19.63;;
37407;SDS011;24866;50.248;8.252;2023-09-30T07:36:38;32.92;;;19.60;;
37407;SDS011;24866;50.248;8.252;2023-09-30T07:39:10;31.65;;;19.20;;
37407;SDS011;24866;50.248;8.252;2023-09-30T07:41:39;28.23;;;17.88;;
37407;SDS011;24866;50.248;8.252;2023-09-30T07:44:09;33.47;;;19.65;;
37407;SDS011;24866;50.248;8.252;2023-09-30T07:46:39;32.53;;;18.52;;
37407;SDS011;24866;50.248;8.252;2023-09-30T07:49:09;33.63;;;19.67;;
37407;SDS011;24866;50.248;8.252;2023-09-30T07:51:39;30.90;;;19.67;;
37407;SDS011;24866;50.248;8.252;2023-09-30T07:54:11;28.60;;;20.25;;
37407;SDS011;24866;50.248;8.252;2023-09-30T07:56:41;26.42;;;19.27;;
37407;SDS011;24866;50.248;8.252;2023-09-30T07:59:11;27.95;;;18.15;;
37407;SDS011;24866;50.248;8.252;2023-09-30T08:01:41;29.73;;;19.23;;
37407;SDS011;24866;50.248;8.252;2023-09-30T08:04:11;30.20;;;17.63;;
37407;SDS011;24866;50.248;8.252;2023-09-30T08:06:41;28.27;;;20.05;;
37407;SDS011;24866;50.248;8.252;2023-09-30T08:09:13;31.42;;;18.52;;
37407;SDS011;24866;50.248;8.252;2023-09-30T08:11:43;31.92;;;17.38;;
37407;SDS011;24866;50.248;8.252;2023-09-30T08:14:13;32.13;;;16.25;;
37407;SDS011;24866;50.248;8.252;2023-09-30T08:16:43;28.75;;;18.52;;
37407;SDS011;24866;50.248;8.252;2023-09-30T08:19:13;27.52;;;17.15;;
37407;SDS011;24866;50.248;8.252;2023-09-30T08:21:42;30.92;;;16.70;;
37407;SDS011;24866;50.248;8.252;2023-09-30T08:24:14;38.90;;;21.73;;
37407;SDS011;24866;50.248;8.252;2023-09-30T08:26:44;30.98;;;18.05;;
37407;SDS011;24866;50.248;8.252;2023-09-30T08:29:14;25.08;;;15.82;;
37407;SDS011;24866;50.248;8.252;2023-09-30T08:31:43;32.70;;;20.13;;
37407;SDS011;24866;50.248;8.252;2023-09-30T08:34:13;33.33;;;19.52;;
37407;SDS011;24866;50.248;8.252;2023-09-30T08:36:43;30.35;;;18.60;;
37407;SDS011;24866;50.248;8.252;2023-09-30T08:39:14;30.35;;;18.63;;
37407;SDS011;24866;50.248;8.252;2023-09-30T08:41:44;25.65;;;17.27;;
37407;SDS011;24866;50.248;8.252;2023-09-30T08:44:14;31.83;;;22.02;;
37407;SDS011;24866;50.248;8.252;2023-09-30T08:46:44;31.98;;;19.70;;
37407;SDS011;24866;50.248;8.252;2023-09-30T08:49:15;29.25;;;18.23;;
37407;SDS011;24866;50.248;8.252;2023-09-30T08:51:46;28.08;;;14.90;;
37407;SDS011;24866;50.248;8.252;2023-09-30T08:54:20;21.63;;;12.55;;
37407;SDS011;24866;50.248;8.252;2023-09-30T08:56:50;21.42;;;12.50;;
37407;SDS011;24866;50.248;8.252;2023-09-30T08:59:20;25.48;;;13.73;;
37407;SDS011;24866;50.248;8.252;2023-09-30T09:01:51;16.65;;;10.60;;
37407;SDS011;24866;50.248;8.252;2023-09-30T09:04:28;16.98;;;9.77;;
37407;SDS011;24866;50.248;8.252;2023-09-30T09:06:59;20.80;;;14.02;;
37407;SDS011;24866;50.248;8.252;2023-09-30T09:09:30;21.55;;;12.98;;
37407;SDS011;24866;50.248;8.252;2023-09-30T09:12:00;21.80;;;13.55;;
37407;SDS011;24866;50.248;8.252;2023-09-30T09:14:37;20.75;;;11.20;;
37407;SDS011;24866;50.248;8.252;2023-09-30T09:17:07;20.42;;;12.07;;
37407;SDS011;24866;50.248;8.252;2023-09-30T09:19:39;16.70;;;11.35;;
37407;SDS011;24866;50.248;8.252;2023-09-30T09:22:09;18.00;;;11.75;;
37407;SDS011;24866;50.248;8.252;2023-09-30T09:24:41;18.55;;;9.70;;
37407;SDS011;24866;50.248;8.252;2023-09-30T09:27:11;16.83;;;8.68;;
37407;SDS011;24866;50.248;8.252;2023-09-30T09:29:44;17.30;;;9.48;;
37407;SDS011;24866;50.248;8.252;2023-09-30T09:32:15;19.45;;;8.98;;
37407;SDS011;24866;50.248;8.252;2023-09-30T09:34:45;21.83;;;10.88;;
37407;SDS011;24866;50.248;8.252;2023-09-30T09:37:30;17.70;;;10.02;;
37407;SDS011;24866;50.248;8.252;2023-09-30T09:40:03;18.65;;;9.75;;
37407;SDS011;24866;50.248;8.252;2023-09-30T09:42:35;13.93;;;8.80;;
37407;SDS011;24866;50.248;8.252;2023-09-30T09:45:06;13.65;;;7.80;;
37407;SDS011;24866;50.248;8.252;2023-09-30T09:47:36;16.92;;;8.68;;
37407;SDS011;24866;50.248;8.252;2023-09-30T09:50:07;15.45;;;8.02;;
37407;SDS011;24866;50.248;8.252;2023-09-30T09:52:38;15.35;;;7.05;;
37407;SDS011;24866;50.248;8.252;2023-09-30T09:55:12;13.30;;;6.43;;
37407;SDS011;24866;50.248;8.252;2023-09-30T09:57:44;14.93;;;7.50;;
37407;SDS011;24866;50.248;8.252;2023-09-30T10:00:15;15.98;;;6.93;;
37407;SDS011;24866;50.248;8.252;2023-09-30T10:02:47;14.50;;;7.50;;
37407;SDS011;24866;50.248;8.252;2023-09-30T10:05:18;16.50;;;8.15;;
37407;SDS011;24866;50.248;8.252;2023-09-30T10:07:51;15.07;;;6.28;;
37407;SDS011;24866;50.248;8.252;2023-09-30T10:10:24;19.25;;;7.40;;
37407;SDS011;24866;50.248;8.252;2023-09-30T10:12:55;13.20;;;7.10;;
37407;SDS011;24866;50.248;8.252;2023-09-30T10:15:34;14.38;;;6.82;;
37407;SDS011;24866;50.248;8.252;2023-09-30T10:18:09;12.40;;;7.05;;
37407;SDS011;24866;50.248;8.252;2023-09-30T10:20:40;12.35;;;6.95;;
37407;SDS011;24866;50.248;8.252;2023-09-30T10:23:19;14.52;;;6.10;;
37407;SDS011;24866;50.248;8.252;2023-09-30T10:26:13;13.60;;;5.80;;
37407;SDS011;24866;50.248;8.252;2023-09-30T10:28:46;14.70;;;5.55;;
37407;SDS011;24866;50.248;8.252;2023-09-30T10:31:18;12.45;;;5.57;;
37407;SDS011;24866;50.248;8.252;2023-09-30T10:36:50;12.98;;;6.03;;
37407;SDS011;24866;50.248;8.252;2023-09-30T10:48:36;15.70;;;6.07;;
37407;SDS011;24866;50.248;8.252;2023-09-30T10:51:13;11.48;;;5.47;;
37407;SDS011;24866;50.248;8.252;2023-09-30T10:53:44;12.35;;;5.55;;
37407;SDS011;24866;50.248;8.252;2023-09-30T10:56:16;9.93;;;4.90;;
37407;SDS011;24866;50.248;8.252;2023-09-30T10:58:48;13.05;;;5.20;;
37407;SDS011;24866;50.248;8.252;2023-09-30T11:01:18;15.07;;;5.80;;
37407;SDS011;24866;50.248;8.252;2023-09-30T11:03:50;13.32;;;6.00;;
37407;SDS011;24866;50.248;8.252;2023-09-30T11:06:30;12.38;;;5.55;;
37407;SDS011;24866;50.248;8.252;2023-09-30T11:09:01;12.32;;;5.60;;
37407;SDS011;24866;50.248;8.252;2023-09-30T11:11:35;13.15;;;5.18;;
37407;SDS011;24866;50.248;8.252;2023-09-30T11:14:17;12.43;;;5.32;;
37407;SDS011;24866;50.248;8.252;2023-09-30T11:16:51;10.68;;;5.22;;
37407;SDS011;24866;50.248;8.252;2023-09-30T11:19:21;12.68;;;5.75;;
37407;SDS011;24866;50.248;8.252;2023-09-30T11:21:53;12.82;;;5.45;;
37407;SDS011;24866;50.248;8.252;2023-09-30T11:24:25;13.77;;;5.57;;
37407;SDS011;24866;50.248;8.252;2023-09-30T11:26:56;8.52;;;4.75;;
37407;SDS011;24866;50.248;8.252;2023-09-30T11:29:28;10.40;;;4.90;;
37407;SDS011;24866;50.248;8.252;2023-09-30T11:31:57;11.82;;;4.90;;
37407;SDS011;24866;50.248;8.252;2023-09-30T11:34:33;10.50;;;5.13;;
37407;SDS011;24866;50.248;8.252;2023-09-30T11:37:04;12.10;;;4.40;;
37407;SDS011;24866;50.248;8.252;2023-09-30T11:39:34;9.77;;;4.60;;
37407;SDS011;24866;50.248;8.252;2023-09-30T11:42:12;11.60;;;4.30;;
37407;SDS011;24866;50.248;8.252;2023-09-30T11:44:45;10.80;;;4.35;;
37407;SDS011;24866;50.248;8.252;2023-09-30T11:47:17;8.70;;;4.18;;
37407;SDS011;24866;50.248;8.252;2023-09-30T11:49:57;10.60;;;5.10;;
37407;SDS011;24866;50.248;8.252;2023-09-30T11:52:27;15.18;;;5.55;;
37407;SDS011;24866;50.248;8.252;2023-09-30T11:54:57;12.95;;;5.20;;
37407;SDS011;24866;50.248;8.252;2023-09-30T11:57:29;10.02;;;5.07;;
37407;SDS011;24866;50.248;8.252;2023-09-30T12:00:00;13.48;;;6.15;;
37407;SDS011;24866;50.248;8.252;2023-09-30T12:02:30;11.45;;;5.88;;
37407;SDS011;24866;50.248;8.252;2023-09-30T12:05:01;10.48;;;4.95;;
37407;SDS011;24866;50.248;8.252;2023-09-30T12:07:31;12.02;;;5.05;;
37407;SDS011;24866;50.248;8.252;2023-09-30T12:10:01;10.15;;;4.82;;
37407;SDS011;24866;50.248;8.252;2023-09-30T12:12:31;9.68;;;5.50;;
37407;SDS011;24866;50.248;8.252;2023-09-30T12:15:02;11.07;;;4.63;;
37407;SDS011;24866;50.248;8.252;2023-09-30T12:17:33;15.85;;;6.45;;
37407;SDS011;24866;50.248;8.252;2023-09-30T12:20:03;13.20;;;4.47;;
37407;SDS011;24866;50.248;8.252;2023-09-30T12:22:34;15.10;;;6.18;;
37407;SDS011;24866;50.248;8.252;2023-09-30T12:25:48;8.90;;;4.93;;
37407;SDS011;24866;50.248;8.252;2023-09-30T12:28:11;9.85;;;4.90;;
37407;SDS011;24866;50.248;8.252;2023-09-30T12:30:43;10.07;;;5.07;;
37407;SDS011;24866;50.248;8.252;2023-09-30T12:33:14;12.90;;;5.80;;
37407;SDS011;24866;50.248;8.252;2023-09-30T12:35:43;11.40;;;5.35;;
37407;SDS011;24866;50.248;8.252;2023-09-30T12:38:13;10.15;;;4.97;;
37407;SDS011;24866;50.248;8.252;2023-09-30T12:40:44;12.10;;;4.47;;
37407;SDS011;24866;50.248;8.252;2023-09-30T12:43:14;11.90;;;5.20;;
37407;SDS011;24866;50.248;8.252;2023-09-30T12:45:45;9.65;;;4.60;;
37407;SDS011;24866;50.248;8.252;2023-09-30T12:48:15;8.73;;;4.90;;
37407;SDS011;24866;50.248;8.252;2023-09-30T12:50:45;12.23;;;6.00;;
37407;SDS011;24866;50.248;8.252;2023-09-30T12:53:15;12.27;;;4.85;;
37407;SDS011;24866;50.248;8.252;2023-09-30T12:55:45;14.73;;;5.55;;
37407;SDS011;24866;50.248;8.252;2023-09-30T12:58:15;11.32;;;4.57;;
37407;SDS011;24866;50.248;8.252;2023-09-30T13:00:46;9.57;;;4.40;;
37407;SDS011;24866;50.248;8.252;2023-09-30T13:03:16;10.95;;;4.97;;
37407;SDS011;24866;50.248;8.252;2023-09-30T13:05:46;8.68;;;4.97;;
37407;SDS011;24866;50.248;8.252;2023-09-30T13:08:16;11.48;;;5.85;;
37407;SDS011;24866;50.248;8.252;2023-09-30T13:10:46;9.18;;;4.80;;
37407;SDS011;24866;50.248;8.252;2023-09-30T13:13:18;9.75;;;4.85;;
37407;SDS011;24866;50.248;8.252;2023-09-30T13:15:49;7.35;;;4.05;;
37407;SDS011;24866;50.248;8.252;2023-09-30T13:18:19;8.77;;;4.13;;
37407;SDS011;24866;50.248;8.252;2023-09-30T13:20:49;6.65;;;3.55;;
37407;SDS011;24866;50.248;8.252;2023-09-30T13:23:20;7.70;;;3.40;;
37407;SDS011;24866;50.248;8.252;2023-09-30T13:25:50;7.53;;;2.97;;
37407;SDS011;24866;50.248;8.252;2023-09-30T13:28:20;11.70;;;4.32;;
37407;SDS011;24866;50.248;8.252;2023-09-30T13:30:51;9.18;;;3.97;;
37407;SDS011;24866;50.248;8.252;2023-09-30T13:33:21;9.48;;;3.88;;
37407;SDS011;24866;50.248;8.252;2023-09-30T13:35:50;11.00;;;4.25;;
37407;SDS011;24866;50.248;8.252;2023-09-30T13:38:20;8.93;;;3.60;;
37407;SDS011;24866;50.248;8.252;2023-09-30T13:40:51;7.57;;;3.42;;
37407;SDS011;24866;50.248;8.252;2023-09-30T13:43:21;8.30;;;3.60;;
37407;SDS011;24866;50.248;8.252;2023-09-30T13:45:52;8.05;;;3.20;;
37407;SDS011;24866;50.248;8.252;2023-09-30T13:48:21;7.80;;;3.95;;
37407;SDS011;24866;50.248;8.252;2023-09-30T13:50:53;7.85;;;3.40;;
37407;SDS011;24866;50.248;8.252;2023-09-30T13:53:22;5.57;;;2.78;;
37407;SDS011;24866;50.248;8.252;2023-09-30T13:55:52;8.20;;;3.75;;
37407;SDS011;24866;50.248;8.252;2023-09-30T13:58:22;10.85;;;4.35;;
37407;SDS011;24866;50.248;8.252;2023-09-30T14:00:53;7.45;;;3.60;;
37407;SDS011;24866;50.248;8.252;2023-09-30T14:03:24;6.13;;;3.30;;
37407;SDS011;24866;50.248;8.252;2023-09-30T14:05:54;9.38;;;3.50;;
37407;SDS011;24866;50.248;8.252;2023-09-30T14:08:25;6.30;;;2.53;;
37407;SDS011;24866;50.248;8.252;2023-09-30T14:10:54;6.35;;;3.50;;
37407;SDS011;24866;50.248;8.252;2023-09-30T14:13:25;7.82;;;3.80;;
37407;SDS011;24866;50.248;8.252;2023-09-30T14:15:56;8.77;;;3.63;;
37407;SDS011;24866;50.248;8.252;2023-09-30T14:18:26;8.00;;;3.42;;
37407;SDS011;24866;50.248;8.252;2023-09-30T14:20:56;9.75;;;4.07;;
37407;SDS011;24866;50.248;8.252;2023-09-30T14:23:26;5.95;;;2.65;;
37407;SDS011;24866;50.248;8.252;2023-09-30T14:25:56;8.45;;;3.88;;
37407;SDS011;24866;50.248;8.252;2023-09-30T14:28:27;9.27;;;4.10;;
37407;SDS011;24866;50.248;8.252;2023-09-30T14:31:02;7.63;;;3.92;;
37407;SDS011;24866;50.248;8.252;2023-09-30T14:33:32;11.98;;;4.43;;
37407;SDS011;24866;50.248;8.252;2023-09-30T14:36:02;6.97;;;3.97;;
37407;SDS011;24866;50.248;8.252;2023-09-30T14:38:33;7.22;;;3.20;;
37407;SDS011;24866;50.248;8.252;2023-09-30T14:41:06;8.38;;;3.22;;
37407;SDS011;24866;50.248;8.252;2023-09-30T14:43:36;9.25;;;3.40;;
37407;SDS011;24866;50.248;8.252;2023-09-30T14:46:08;8.30;;;3.97;;
37407;SDS011;24866;50.248;8.252;2023-09-30T14:48:38;8.45;;;3.80;;
37407;SDS011;24866;50.248;8.252;2023-09-30T14:51:08;8.68;;;3.45;;
37407;SDS011;24866;50.248;8.252;2023-09-30T14:53:37;9.48;;;3.65;;
37407;SDS011;24866;50.248;8.252;2023-09-30T14:56:14;8.57;;;4.35;;
37407;SDS011;24866;50.248;8.252;2023-09-30T14:58:45;10.02;;;3.80;;
37407;SDS011;24866;50.248;8.252;2023-09-30T15:01:16;8.27;;;3.95;;
37407;SDS011;24866;50.248;8.252;2023-09-30T15:03:48;8.55;;;4.00;;
37407;SDS011;24866;50.248;8.252;2023-09-30T15:06:18;9.38;;;3.72;;
37407;SDS011;24866;50.248;8.252;2023-09-30T15:08:49;9.45;;;4.10;;
37407;SDS011;24866;50.248;8.252;2023-09-30T15:11:19;8.27;;;4.10;;
37407;SDS011;24866;50.248;8.252;2023-09-30T15:13:50;10.15;;;4.63;;